sensor_id;sensor_type;location;lat;lon;timestamp;pressure;altitude;pressure_sealevel;temperature;humidity
12694;BME280;6411;58.190;12.720;2023-02-01T00:01:21;61791.88;;;2.30;100.00
12694;BME280;6411;58.190;12.720;2023-02-01T00:03:46;61798.16;;;2.36;100.00
12694;BME280;6411;58.190;12.720;2023-02-01T00:06:12;61799.16;;;2.35;100.00
12694;BME280;6411;58.190;12.720;2023-02-01T00:08:37;61802.25;;;2.35;100.00
12694;BME280;6411;58.190;12.720;2023-02-01T00:11:06;61790.81;;;2.29;100.00
12694;BME280;6411;58.190;12.720;2023-02-01T00:13:33;61797.56;;;2.33;100.00
12694;BME280;6411;58.190;12.720;2023-02-01T00:16:07;61801.84;;;2.40;100.00
12694;BME280;6411;58.190;12.720;2023-02-01T00:18:33;61793.91;;;2.29;100.00
12694;BME280;6411;58.190;12.720;2023-02-01T00:20:58;61786.16;;;2.27;100.00
12694;BME280;6411;58.190;12.720;2023-02-01T00:23:24;61797.63;;;2.36;100.00
12694;BME280;6411;58.190;12.720;2023-02-01T00:25:50;61790.41;;;2.34;100.00
12694;BME280;6411;58.190;12.720;2023-02-01T00:28:15;61803.91;;;2.42;100.00
12694;BME280;6411;58.190;12.720;2023-02-01T00:30:41;61788.19;;;2.26;100.00
12694;BME280;6411;58.190;12.720;2023-02-01T00:33:06;61789.66;;;2.23;100.00
12694;BME280;6411;58.190;12.720;2023-02-01T00:35:34;61784.06;;;2.25;100.00
12694;BME280;6411;58.190;12.720;2023-02-01T00:38:00;61786.53;;;2.20;100.00
12694;BME280;6411;58.190;12.720;2023-02-01T00:40:26;61781.34;;;2.17;100.00
12694;BME280;6411;58.190;12.720;2023-02-01T00:42:51;61778.72;;;2.15;100.00
12694;BME280;6411;58.190;12.720;2023-02-01T00:45:17;61765.19;;;2.07;100.00
12694;BME280;6411;58.190;12.720;2023-02-01T00:47:43;61768.81;;;2.08;100.00
12694;BME280;6411;58.190;12.720;2023-02-01T00:50:09;61773.53;;;2.12;100.00
12694;BME280;6411;58.190;12.720;2023-02-01T00:52:35;61765.19;;;2.07;100.00
12694;BME280;6411;58.190;12.720;2023-02-01T00:55:00;61753.19;;;1.98;100.00
12694;BME280;6411;58.190;12.720;2023-02-01T00:57:26;61756.25;;;1.96;100.00
12694;BME280;6411;58.190;12.720;2023-02-01T00:59:51;61749.59;;;1.97;100.00
12694;BME280;6411;58.190;12.720;2023-02-01T01:02:17;61750.06;;;1.95;100.00
12694;BME280;6411;58.190;12.720;2023-02-01T01:04:42;61752.59;;;1.92;100.00
12694;BME280;6411;58.190;12.720;2023-02-01T01:07:08;61747.88;;;1.88;100.00
12694;BME280;6411;58.190;12.720;2023-02-01T01:09:34;61748.91;;;1.89;100.00
12694;BME280;6411;58.190;12.720;2023-02-01T01:11:59;61742.16;;;1.85;100.00
12694;BME280;6411;58.190;12.720;2023-02-01T01:14:31;61753.56;;;1.91;100.00
12694;BME280;6411;58.190;12.720;2023-02-01T01:16:57;61753.63;;;1.93;100.00
12694;BME280;6411;58.190;12.720;2023-02-01T01:19:23;61755.25;;;1.97;100.00
12694;BME280;6411;58.190;12.720;2023-02-01T01:21:48;61758.84;;;1.98;100.00
12694;BME280;6411;58.190;12.720;2023-02-01T01:24:14;61755.25;;;1.97;100.00
12694;BME280;6411;58.190;12.720;2023-02-01T01:26:40;61746.41;;;1.91;100.00
12694;BME280;6411;58.190;12.720;2023-02-01T01:29:05;61743.16;;;1.83;100.00
12694;BME280;6411;58.190;12.720;2023-02-01T01:31:31;61751.50;;;1.89;100.00
12694;BME280;6411;58.190;12.720;2023-02-01T01:33:58;61746.22;;;1.84;100.00
12694;BME280;6411;58.190;12.720;2023-02-01T01:36:25;61744.19;;;1.84;100.00
12694;BME280;6411;58.190;12.720;2023-02-01T01:38:52;61735.81;;;1.76;100.00
12694;BME280;6411;58.190;12.720;2023-02-01T01:41:24;61738.81;;;1.72;100.00
12694;BME280;6411;58.190;12.720;2023-02-01T01:46:32;61732.19;;;1.75;100.00
12694;BME280;6411;58.190;12.720;2023-02-01T01:51:33;61737.97;;;1.81;100.00
12694;BME280;6411;58.190;12.720;2023-02-01T01:54:11;61743.16;;;1.83;100.00
12694;BME280;6411;58.190;12.720;2023-02-01T01:56:39;61738.44;;;1.79;100.00
12694;BME280;6411;58.190;12.720;2023-02-01T01:59:06;61733.25;;;1.76;100.00
12694;BME280;6411;58.190;12.720;2023-02-01T02:01:33;61736.88;;;1.77;100.00
12694;BME280;6411;58.190;12.720;2023-02-01T02:03:58;61716.50;;;1.60;100.00
12694;BME280;6411;58.190;12.720;2023-02-01T02:06:32;61728.53;;;1.72;100.00
12694;BME280;6411;58.190;12.720;2023-02-01T02:08:59;61725.47;;;1.71;100.00
12694;BME280;6411;58.190;12.720;2023-02-01T02:11:24;61731.56;;;1.70;100.00
12694;BME280;6411;58.190;12.720;2023-02-01T02:13:54;61727.97;;;1.69;100.00
12694;BME280;6411;58.190;12.720;2023-02-01T02:16:50;61718.06;;;1.62;100.00
12694;BME280;6411;58.190;12.720;2023-02-01T02:36:27;61711.09;;;1.48;100.00
12694;BME280;6411;58.190;12.720;2023-02-01T02:47:47;61717.50;;;1.59;100.00
12694;BME280;6411;58.190;12.720;2023-02-01T02:51:00;61732.63;;;1.71;100.00
12694;BME280;6411;58.190;12.720;2023-02-01T02:53:52;61731.63;;;1.72;100.00
12694;BME280;6411;58.190;12.720;2023-02-01T02:56:41;61742.00;;;1.77;100.00
12694;BME280;6411;58.190;12.720;2023-02-01T02:59:26;61748.91;;;1.89;100.00
12694;BME280;6411;58.190;12.720;2023-02-01T03:02:13;61750.97;;;1.88;100.00
12694;BME280;6411;58.190;12.720;2023-02-01T03:04:58;61751.06;;;1.93;100.00
12694;BME280;6411;58.190;12.720;2023-02-01T03:12:49;61753.63;;;1.93;100.00
12694;BME280;6411;58.190;12.720;2023-02-01T03:18:28;61758.91;;;2.01;100.00
12694;BME280;6411;58.190;12.720;2023-02-01T03:20:57;61759.28;;;1.94;100.00
12694;BME280;6411;58.190;12.720;2023-02-01T03:23:28;61761.44;;;1.98;100.00
12694;BME280;6411;58.190;12.720;2023-02-01T03:25:56;61748.44;;;1.91;100.00
12694;BME280;6411;58.190;12.720;2023-02-01T03:28:23;61752.59;;;1.92;100.00
12694;BME280;6411;58.190;12.720;2023-02-01T03:30:51;61762.44;;;1.97;100.00
12694;BME280;6411;58.190;12.720;2023-02-01T03:33:20;61755.19;;;1.95;100.00
12694;BME280;6411;58.190;12.720;2023-02-01T03:36:24;61763.47;;;1.98;100.00
12694;BME280;6411;58.190;12.720;2023-02-01T03:41:33;61780.81;;;2.17;100.00
12694;BME280;6411;58.190;12.720;2023-02-01T03:44:13;61792.34;;;2.28;100.00
12694;BME280;6411;58.190;12.720;2023-02-01T03:46:54;61791.34;;;2.29;100.00
12694;BME280;6411;58.190;12.720;2023-02-01T03:49:34;61796.06;;;2.34;100.00
12694;BME280;6411;58.190;12.720;2023-02-01T03:52:02;61794.06;;;2.37;100.00
12694;BME280;6411;58.190;12.720;2023-02-01T03:54:29;61816.50;;;2.54;100.00
12694;BME280;6411;58.190;12.720;2023-02-01T03:56:58;61818.59;;;2.56;100.00
12694;BME280;6411;58.190;12.720;2023-02-01T03:59:24;61808.69;;;2.49;100.00
12694;BME280;6411;58.190;12.720;2023-02-01T04:01:50;61813.41;;;2.53;100.00
12694;BME280;6411;58.190;12.720;2023-02-01T04:04:16;61817.47;;;2.52;100.00
12694;BME280;6411;58.190;12.720;2023-02-01T04:06:50;61810.84;;;2.53;100.00
12694;BME280;6411;58.190;12.720;2023-02-01T04:09:16;61817.06;;;2.57;100.00
12694;BME280;6411;58.190;12.720;2023-02-01T04:11:42;61830.66;;;2.67;100.00
12694;BME280;6411;58.190;12.720;2023-02-01T04:14:08;61825.97;;;2.65;100.00
12694;BME280;6411;58.190;12.720;2023-02-01T04:16:34;61829.09;;;2.66;100.00
12694;BME280;6411;58.190;12.720;2023-02-01T04:19:00;61836.94;;;2.73;100.00
12694;BME280;6411;58.190;12.720;2023-02-01T04:21:26;61845.81;;;2.79;100.00
12694;BME280;6411;58.190;12.720;2023-02-01T04:23:53;61833.22;;;2.67;100.00
12694;BME280;6411;58.190;12.720;2023-02-01T04:26:19;61837.53;;;2.76;100.00
12694;BME280;6411;58.190;12.720;2023-02-01T04:28:45;61837.53;;;2.76;100.00
12694;BME280;6411;58.190;12.720;2023-02-01T04:31:13;61836.41;;;2.73;100.00
12694;BME280;6411;58.190;12.720;2023-02-01T04:33:39;61842.06;;;2.73;100.00
12694;BME280;6411;58.190;12.720;2023-02-01T04:36:04;61845.81;;;2.79;100.00
12694;BME280;6411;58.190;12.720;2023-02-01T04:38:30;61840.09;;;2.76;100.00
12694;BME280;6411;58.190;12.720;2023-02-01T04:40:57;61829.59;;;2.66;100.00
12694;BME280;6411;58.190;12.720;2023-02-01T04:43:23;61827.03;;;2.66;100.00
12694;BME280;6411;58.190;12.720;2023-02-01T04:45:49;61832.16;;;2.66;100.00
12694;BME280;6411;58.190;12.720;2023-02-01T04:48:16;61843.63;;;2.75;100.00
12694;BME280;6411;58.190;12.720;2023-02-01T04:50:43;61839.50;;;2.73;100.00
12694;BME280;6411;58.190;12.720;2023-02-01T04:53:10;61834.72;;;2.66;100.00
12694;BME280;6411;58.190;12.720;2023-02-01T04:55:35;61847.31;;;2.78;100.00
12694;BME280;6411;58.190;12.720;2023-02-01T04:58:01;61840.03;;;2.74;100.00
12694;BME280;6411;58.190;12.720;2023-02-01T05:00:26;61834.84;;;2.71;100.00
12694;BME280;6411;58.190;12.720;2023-02-01T05:02:52;61834.94;;;2.76;100.00
12694;BME280;6411;58.190;12.720;2023-02-01T05:05:17;61842.16;;;2.78;100.00
12694;BME280;6411;58.190;12.720;2023-02-01T05:07:43;61847.31;;;2.78;100.00
12694;BME280;6411;58.190;12.720;2023-02-01T05:10:08;61841.13;;;2.77;100.00
12694;BME280;6411;58.190;12.720;2023-02-01T05:12:34;61839.00;;;2.73;100.00
12694;BME280;6411;58.190;12.720;2023-02-01T05:15:18;61836.31;;;2.68;100.00
12694;BME280;6411;58.190;12.720;2023-02-01T05:17:43;61841.03;;;2.72;100.00
12694;BME280;6411;58.190;12.720;2023-02-01T05:20:09;61842.13;;;2.76;100.00
12694;BME280;6411;58.190;12.720;2023-02-01T05:22:35;61843.16;;;2.77;100.00
12694;BME280;6411;58.190;12.720;2023-02-01T05:25:00;61849.63;;;2.90;100.00
12694;BME280;6411;58.190;12.720;2023-02-01T05:27:29;61852.09;;;2.85;100.00
12694;BME280;6411;58.190;12.720;2023-02-01T05:29:55;61853.63;;;2.84;100.00
12694;BME280;6411;58.190;12.720;2023-02-01T05:32:21;61850.00;;;2.83;100.00
12694;BME280;6411;58.190;12.720;2023-02-01T05:34:46;61842.16;;;2.78;100.00
12694;BME280;6411;58.190;12.720;2023-02-01T05:37:12;61846.28;;;2.77;100.00
12694;BME280;6411;58.190;12.720;2023-02-01T05:39:37;61845.81;;;2.79;100.00
12694;BME280;6411;58.190;12.720;2023-02-01T05:42:03;61837.94;;;2.72;100.00
12694;BME280;6411;58.190;12.720;2023-02-01T05:44:28;61840.59;;;2.77;100.00
12694;BME280;6411;58.190;12.720;2023-02-01T05:46:54;61838.09;;;2.79;100.00
12694;BME280;6411;58.190;12.720;2023-02-01T05:49:19;61832.31;;;2.74;100.00
12694;BME280;6411;58.190;12.720;2023-02-01T05:51:45;61853.78;;;2.92;100.00
12694;BME280;6411;58.190;12.720;2023-02-01T05:54:11;61856.81;;;2.90;100.00
12694;BME280;6411;58.190;12.720;2023-02-01T05:56:36;61851.13;;;2.89;100.00
12694;BME280;6411;58.190;12.720;2023-02-01T05:59:02;61851.66;;;2.90;100.00
12694;BME280;6411;58.190;12.720;2023-02-01T06:01:27;61850.09;;;2.88;100.00
12694;BME280;6411;58.190;12.720;2023-02-01T06:03:53;61854.28;;;2.92;100.00
12694;BME280;6411;58.190;12.720;2023-02-01T06:06:18;61857.34;;;2.90;100.00
12694;BME280;6411;58.190;12.720;2023-02-01T06:08:45;61849.41;;;2.80;100.00
12694;BME280;6411;58.190;12.720;2023-02-01T06:11:10;61856.81;;;2.90;100.00
12694;BME280;6411;58.190;12.720;2023-02-01T06:13:36;61851.13;;;2.89;100.00
12694;BME280;6411;58.190;12.720;2023-02-01T06:16:04;61855.34;;;2.93;100.00
12694;BME280;6411;58.190;12.720;2023-02-01T06:18:31;61864.19;;;2.99;100.00
12694;BME280;6411;58.190;12.720;2023-02-01T06:20:57;61858.94;;;2.94;100.00
12694;BME280;6411;58.190;12.720;2023-02-01T06:23:25;61852.56;;;2.83;100.00
12694;BME280;6411;58.190;12.720;2023-02-01T06:26:04;61843.28;;;2.82;100.00
12694;BME280;6411;58.190;12.720;2023-02-01T06:28:30;61845.31;;;2.81;100.00
12694;BME280;6411;58.190;12.720;2023-02-01T06:30:56;61846.84;;;2.80;100.00
12694;BME280;6411;58.190;12.720;2023-02-01T06:33:24;61846.31;;;2.80;100.00
12694;BME280;6411;58.190;12.720;2023-02-01T06:35:57;61855.19;;;2.86;100.00
12694;BME280;6411;58.190;12.720;2023-02-01T06:38:23;61839.56;;;2.76;100.00
12694;BME280;6411;58.190;12.720;2023-02-01T06:40:56;61847.91;;;2.81;100.00
12694;BME280;6411;58.190;12.720;2023-02-01T06:43:22;61838.03;;;2.77;100.00
12694;BME280;6411;58.190;12.720;2023-02-01T06:45:49;61844.22;;;2.78;100.00
12694;BME280;6411;58.190;12.720;2023-02-01T06:48:14;61844.84;;;2.83;100.00
12694;BME280;6411;58.190;12.720;2023-02-01T06:50:41;61844.81;;;2.81;100.00
12694;BME280;6411;58.190;12.720;2023-02-01T06:53:07;61828.03;;;2.65;100.00
12694;BME280;6411;58.190;12.720;2023-02-01T06:55:32;61828.59;;;2.68;100.00
12694;BME280;6411;58.190;12.720;2023-02-01T06:57:58;61834.78;;;2.69;100.00
12694;BME280;6411;58.190;12.720;2023-02-01T07:00:24;61822.78;;;2.60;100.00
12694;BME280;6411;58.190;12.720;2023-02-01T07:02:50;61813.97;;;2.56;100.00
12694;BME280;6411;58.190;12.720;2023-02-01T07:05:16;61832.25;;;2.71;100.00
12694;BME280;6411;58.190;12.720;2023-02-01T07:07:42;61831.59;;;2.63;100.00
12694;BME280;6411;58.190;12.720;2023-02-01T07:10:09;61833.69;;;2.65;100.00
12694;BME280;6411;58.190;12.720;2023-02-01T07:12:34;61830.19;;;2.69;100.00
12694;BME280;6411;58.190;12.720;2023-02-01T07:15:02;61834.84;;;2.71;100.00
12694;BME280;6411;58.190;12.720;2023-02-01T07:17:28;61846.84;;;2.80;100.00
12694;BME280;6411;58.190;12.720;2023-02-01T07:19:55;61847.44;;;2.83;100.00
12694;BME280;6411;58.190;12.720;2023-02-01T07:22:20;61845.84;;;2.82;100.00
12694;BME280;6411;58.190;12.720;2023-02-01T07:24:46;61846.44;;;2.85;100.00
12694;BME280;6411;58.190;12.720;2023-02-01T07:27:11;61851.59;;;2.87;100.00
12694;BME280;6411;58.190;12.720;2023-02-01T07:29:37;61849.03;;;2.87;100.00
12694;BME280;6411;58.190;12.720;2023-02-01T07:32:03;61856.34;;;2.92;100.00
12694;BME280;6411;58.190;12.720;2023-02-01T07:34:29;61869.41;;;3.02;100.00
12694;BME280;6411;58.190;12.720;2023-02-01T07:36:56;61867.34;;;3.02;100.00
12694;BME280;6411;58.190;12.720;2023-02-01T07:39:21;61875.72;;;3.10;100.00
12694;BME280;6411;58.190;12.720;2023-02-01T07:41:47;61878.88;;;3.13;100.00
12694;BME280;6411;58.190;12.720;2023-02-01T07:44:13;61877.38;;;3.14;100.00
12694;BME280;6411;58.190;12.720;2023-02-01T07:46:39;61880.44;;;3.15;100.00
12694;BME280;6411;58.190;12.720;2023-02-01T07:49:05;61877.78;;;3.10;100.00
12694;BME280;6411;58.190;12.720;2023-02-01T07:51:31;61863.72;;;3.01;100.00
12694;BME280;6411;58.190;12.720;2023-02-01T07:53:57;61874.69;;;3.09;100.00
12694;BME280;6411;58.190;12.720;2023-02-01T07:56:23;61872.06;;;3.07;100.00
12694;BME280;6411;58.190;12.720;2023-02-01T07:58:53;61870.06;;;3.10;100.00
12694;BME280;6411;58.190;12.720;2023-02-01T08:01:24;61880.97;;;3.15;100.00
12694;BME280;6411;58.190;12.720;2023-02-01T08:03:57;61884.13;;;3.18;100.00
12694;BME280;6411;58.190;12.720;2023-02-01T08:06:27;61871.16;;;3.13;100.00
12694;BME280;6411;58.190;12.720;2023-02-01T08:08:53;61882.03;;;3.16;100.00
12694;BME280;6411;58.190;12.720;2023-02-01T08:11:20;61878.78;;;3.08;100.00
12694;BME280;6411;58.190;12.720;2023-02-01T08:13:46;61877.84;;;3.12;100.00
12694;BME280;6411;58.190;12.720;2023-02-01T08:16:13;61882.59;;;3.19;100.00
12694;BME280;6411;58.190;12.720;2023-02-01T08:18:39;61885.66;;;3.17;100.00
12694;BME280;6411;58.190;12.720;2023-02-01T08:21:10;61876.34;;;3.16;100.00
12694;BME280;6411;58.190;12.720;2023-02-01T08:23:37;61880.50;;;3.17;100.00
12694;BME280;6411;58.190;12.720;2023-02-01T08:28:41;61876.78;;;3.11;100.00
12694;BME280;6411;58.190;12.720;2023-02-01T08:31:15;61890.41;;;3.24;100.00
12694;BME280;6411;58.190;12.720;2023-02-01T08:33:42;61899.28;;;3.30;100.00
12694;BME280;6411;58.190;12.720;2023-02-01T08:36:10;61895.72;;;3.32;100.00
12694;BME280;6411;58.190;12.720;2023-02-01T08:38:37;61907.63;;;3.36;100.00
12694;BME280;6411;58.190;12.720;2023-02-01T08:41:12;61904.09;;;3.40;100.00
12694;BME280;6411;58.190;12.720;2023-02-01T08:43:39;61903.06;;;3.39;100.00
12694;BME280;6411;58.190;12.720;2023-02-01T08:46:05;61913.50;;;3.47;100.00
12694;BME280;6411;58.190;12.720;2023-02-01T08:48:31;61916.19;;;3.52;100.00
12694;BME280;6411;58.190;12.720;2023-02-01T08:50:57;61939.16;;;3.69;100.00
12694;BME280;6411;58.190;12.720;2023-02-01T08:53:23;61938.63;;;3.68;100.00
12694;BME280;6411;58.190;12.720;2023-02-01T08:55:50;61937.59;;;3.67;100.00
12694;BME280;6411;58.190;12.720;2023-02-01T08:58:15;61948.13;;;3.80;100.00
12694;BME280;6411;58.190;12.720;2023-02-01T09:00:43;61950.22;;;3.82;100.00
12694;BME280;6411;58.190;12.720;2023-02-01T09:03:11;61940.78;;;3.73;100.00
12694;BME280;6411;58.190;12.720;2023-02-01T09:05:37;61947.16;;;3.84;100.00
12694;BME280;6411;58.190;12.720;2023-02-01T09:08:03;61953.88;;;3.85;100.00
12694;BME280;6411;58.190;12.720;2023-02-01T09:10:30;61957.00;;;3.86;100.00
12694;BME280;6411;58.190;12.720;2023-02-01T09:12:56;61955.47;;;3.87;100.00
12694;BME280;6411;58.190;12.720;2023-02-01T09:15:21;61950.75;;;3.82;100.00
12694;BME280;6411;58.190;12.720;2023-02-01T09:17:47;61958.56;;;3.87;100.00
12694;BME280;6411;58.190;12.720;2023-02-01T09:20:14;61933.94;;;3.66;100.00
12694;BME280;6411;58.190;12.720;2023-02-01T09:22:40;61979.03;;;4.07;100.00
12694;BME280;6411;58.190;12.720;2023-02-01T09:25:06;62003.19;;;4.30;100.00
12694;BME280;6411;58.190;12.720;2023-02-01T09:27:32;62024.19;;;4.50;100.00
12694;BME280;6411;58.190;12.720;2023-02-01T09:29:58;62056.81;;;4.84;100.00
12694;BME280;6411;58.190;12.720;2023-02-01T09:32:24;62061.53;;;4.88;100.00
12694;BME280;6411;58.190;12.720;2023-02-01T09:34:50;62092.50;;;5.15;100.00
12694;BME280;6411;58.190;12.720;2023-02-01T09:37:16;62072.63;;;5.01;100.00
12694;BME280;6411;58.190;12.720;2023-02-01T09:39:42;62092.06;;;5.20;100.00
12694;BME280;6411;58.190;12.720;2023-02-01T09:45:35;62164.56;;;5.87;100.00
12694;BME280;6411;58.190;12.720;2023-02-01T09:48:14;62193.00;;;6.16;100.00
12694;BME280;6411;58.190;12.720;2023-02-01T09:53:18;62227.69;;;6.47;100.00
12694;BME280;6411;58.190;12.720;2023-02-01T09:55:51;62282.91;;;6.97;100.00
12694;BME280;6411;58.190;12.720;2023-02-01T09:58:36;62289.31;;;7.08;100.00
12694;BME280;6411;58.190;12.720;2023-02-01T10:01:04;62314.03;;;7.29;100.00
12694;BME280;6411;58.190;12.720;2023-02-01T10:03:33;62341.38;;;7.53;100.00
12694;BME280;6411;58.190;12.720;2023-02-01T10:17:38;62252.88;;;6.66;100.00
12694;BME280;6411;58.190;12.720;2023-02-01T10:25:54;62270.22;;;6.82;100.00
12694;BME280;6411;58.190;12.720;2023-02-01T10:28:21;62206.66;;;6.27;100.00
12694;BME280;6411;58.190;12.720;2023-02-01T10:30:54;62190.88;;;6.12;100.00
12694;BME280;6411;58.190;12.720;2023-02-01T10:33:25;62252.97;;;6.71;100.00
12694;BME280;6411;58.190;12.720;2023-02-01T10:36:00;62318.28;;;7.36;100.00
12694;BME280;6411;58.190;12.720;2023-02-01T10:38:30;62342.03;;;7.61;100.00
12694;BME280;6411;58.190;12.720;2023-02-01T10:41:07;62315.06;;;7.30;100.00
12694;BME280;6411;58.190;12.720;2023-02-01T10:43:37;62315.53;;;7.26;100.00
12694;BME280;6411;58.190;12.720;2023-02-01T10:46:04;62371.47;;;7.86;100.00
12694;BME280;6411;58.190;12.720;2023-02-01T10:48:31;62421.03;;;8.34;100.00
12694;BME280;6411;58.190;12.720;2023-02-01T10:51:10;62551.78;;;9.53;100.00
12694;BME280;6411;58.190;12.720;2023-02-01T10:53:48;62524.91;;;9.30;100.00
12694;BME280;6411;58.190;12.720;2023-02-01T10:56:22;62537.50;;;9.37;100.00
12694;BME280;6411;58.190;12.720;2023-02-01T10:58:48;62398.34;;;8.12;100.00
12694;BME280;6411;58.190;12.720;2023-02-01T11:01:20;62489.00;;;8.96;100.00
12694;BME280;6411;58.190;12.720;2023-02-01T11:03:58;62563.44;;;9.67;100.00
12694;BME280;6411;58.190;12.720;2023-02-01T11:08:58;62360.81;;;7.69;100.00
12694;BME280;6411;58.190;12.720;2023-02-01T11:11:24;62409.91;;;8.21;100.00
12694;BME280;6411;58.190;12.720;2023-02-01T11:14:26;62463.69;;;8.72;100.00
12694;BME280;6411;58.190;12.720;2023-02-01T11:16:58;62370.34;;;7.80;100.00
12694;BME280;6411;58.190;12.720;2023-02-01T11:19:23;62402.56;;;8.16;100.00
12694;BME280;6411;58.190;12.720;2023-02-01T11:21:51;62483.72;;;8.88;100.00
12694;BME280;6411;58.190;12.720;2023-02-01T11:24:26;62588.16;;;9.85;100.00
12694;BME280;6411;58.190;12.720;2023-02-01T11:26:55;62784.28;;;11.74;100.00
12694;BME280;6411;58.190;12.720;2023-02-01T11:29:23;62963.88;;;13.55;100.00
12694;BME280;6411;58.190;12.720;2023-02-01T11:31:56;62986.63;;;13.74;100.00
12694;BME280;6411;58.190;12.720;2023-02-01T11:34:26;62957.44;;;13.41;100.00
12694;BME280;6411;58.190;12.720;2023-02-01T11:36:57;62852.00;;;12.38;100.00
12694;BME280;6411;58.190;12.720;2023-02-01T11:39:31;62845.78;;;12.40;100.00
12694;BME280;6411;58.190;12.720;2023-02-01T11:42:15;62829.78;;;12.17;100.00
12694;BME280;6411;58.190;12.720;2023-02-01T11:44:46;62876.47;;;12.69;100.00
12694;BME280;6411;58.190;12.720;2023-02-01T11:47:29;63060.25;;;14.38;100.00
12694;BME280;6411;58.190;12.720;2023-02-01T11:50:02;62934.66;;;13.19;100.00
12694;BME280;6411;58.190;12.720;2023-02-01T11:55:56;63055.94;;;14.29;100.00
12694;BME280;6411;58.190;12.720;2023-02-01T12:07:21;62992.47;;;13.79;100.00
12694;BME280;6411;58.190;12.720;2023-02-01T12:09:55;62992.44;;;13.77;100.00
12694;BME280;6411;58.190;12.720;2023-02-01T12:15:54;63042.28;;;14.26;100.00
12694;BME280;6411;58.190;12.720;2023-02-01T12:21:43;63216.31;;;15.91;100.00
12694;BME280;6411;58.190;12.720;2023-02-01T12:33:01;60108.94;;;-139.41;100.00
12694;BME280;6411;58.190;12.720;2023-02-01T12:35:42;63402.28;;;17.62;100.00
12694;BME280;6411;58.190;12.720;2023-02-01T12:46:39;63205.72;;;15.81;100.00
12694;BME280;6411;58.190;12.720;2023-02-01T12:49:14;63222.69;;;15.97;100.00
12694;BME280;6411;58.190;12.720;2023-02-01T12:51:44;63371.94;;;17.31;100.00
12694;BME280;6411;58.190;12.720;2023-02-01T12:54:30;63260.88;;;16.28;100.00
12694;BME280;6411;58.190;12.720;2023-02-01T12:57:02;63106.88;;;14.80;100.00
12694;BME280;6411;58.190;12.720;2023-02-01T12:59:40;62681.22;;;10.79;100.00
12694;BME280;6411;58.190;12.720;2023-02-01T13:05:02;62438.88;;;8.46;100.00
12694;BME280;6411;58.190;12.720;2023-02-01T13:07:38;62318.69;;;7.29;100.00
12694;BME280;6411;58.190;12.720;2023-02-01T13:10:43;62272.91;;;6.88;100.00
12694;BME280;6411;58.190;12.720;2023-02-01T13:15:49;62255.09;;;6.75;100.00
12694;BME280;6411;58.190;12.720;2023-02-01T13:18:18;62250.28;;;6.66;100.00
12694;BME280;6411;58.190;12.720;2023-02-01T13:21:07;62245.59;;;6.64;100.00
12694;BME280;6411;58.190;12.720;2023-02-01T13:23:36;62235.53;;;6.52;100.00
12694;BME280;6411;58.190;12.720;2023-02-01T13:26:03;62245.53;;;6.61;100.00
12694;BME280;6411;58.190;12.720;2023-02-01T13:28:49;62249.28;;;6.67;100.00
12694;BME280;6411;58.190;12.720;2023-02-01T13:42:55;62163.66;;;5.93;100.00
12694;BME280;6411;58.190;12.720;2023-02-01T13:45:24;62153.41;;;5.71;100.00
12694;BME280;6411;58.190;12.720;2023-02-01T13:47:54;62135.63;;;5.59;100.00
12694;BME280;6411;58.190;12.720;2023-02-01T13:50:37;62128.84;;;5.55;100.00
12694;BME280;6411;58.190;12.720;2023-02-01T13:53:14;62137.19;;;5.58;100.00
12694;BME280;6411;58.190;12.720;2023-02-01T13:55:43;62136.66;;;5.57;100.00
12694;BME280;6411;58.190;12.720;2023-02-01T14:03:51;62237.19;;;6.56;100.00
12694;BME280;6411;58.190;12.720;2023-02-01T14:06:35;62275.09;;;6.95;100.00
12694;BME280;6411;58.190;12.720;2023-02-01T14:09:13;62318.75;;;7.34;100.00
12694;BME280;6411;58.190;12.720;2023-02-01T14:19:28;62376.75;;;7.91;100.00
12694;BME280;6411;58.190;12.720;2023-02-01T14:22:30;62352.50;;;7.68;100.00
12694;BME280;6411;58.190;12.720;2023-02-01T14:24:56;62255.09;;;6.75;100.00
12694;BME280;6411;58.190;12.720;2023-02-01T14:27:25;62223.00;;;6.45;100.00
12694;BME280;6411;58.190;12.720;2023-02-01T14:29:56;62179.84;;;6.04;100.00
12694;BME280;6411;58.190;12.720;2023-02-01T14:34:53;62119.38;;;5.46;100.00
12694;BME280;6411;58.190;12.720;2023-02-01T14:37:26;62092.00;;;5.17;100.00
12694;BME280;6411;58.190;12.720;2023-02-01T14:40:03;62096.19;;;5.21;100.00
12694;BME280;6411;58.190;12.720;2023-02-01T14:53:20;62005.38;;;4.37;100.00
12694;BME280;6411;58.190;12.720;2023-02-01T14:56:15;61973.84;;;4.04;100.00
12694;BME280;6411;58.190;12.720;2023-02-01T15:01:22;61923.47;;;3.56;100.00
12694;BME280;6411;58.190;12.720;2023-02-01T15:09:34;61847.44;;;2.83;100.00
12694;BME280;6411;58.190;12.720;2023-02-01T15:14:41;61830.19;;;2.69;100.00
12694;BME280;6411;58.190;12.720;2023-02-01T15:17:25;61821.69;;;2.56;100.00
12694;BME280;6411;58.190;12.720;2023-02-01T15:19:59;61812.31;;;2.50;100.00
12694;BME280;6411;58.190;12.720;2023-02-01T15:22:27;61771.97;;;2.11;100.00
12694;BME280;6411;58.190;12.720;2023-02-01T15:24:54;61760.38;;;1.97;100.00
12694;BME280;6411;58.190;12.720;2023-02-01T15:27:20;61748.91;;;1.89;100.00
12694;BME280;6411;58.190;12.720;2023-02-01T15:29:46;61739.44;;;1.77;100.00
12694;BME280;6411;58.190;12.720;2023-02-01T15:32:35;61733.75;;;1.77;100.00
12694;BME280;6411;58.190;12.720;2023-02-01T15:35:03;61728.53;;;1.72;100.00
12694;BME280;6411;58.190;12.720;2023-02-01T15:37:29;61721.66;;;1.63;100.00
12694;BME280;6411;58.190;12.720;2023-02-01T15:42:57;61702.75;;;1.40;100.00
12694;BME280;6411;58.190;12.720;2023-02-01T15:45:28;61718.63;;;1.65;100.00
12694;BME280;6411;58.190;12.720;2023-02-01T15:47:56;61746.22;;;1.84;100.00
12694;BME280;6411;58.190;12.720;2023-02-01T15:50:23;61774.53;;;2.11;100.00
12694;BME280;6411;58.190;12.720;2023-02-01T15:52:51;61783.50;;;2.22;100.00
12694;BME280;6411;58.190;12.720;2023-02-01T15:57:45;61821.75;;;2.59;100.00
12694;BME280;6411;58.190;12.720;2023-02-01T16:00:26;61819.13;;;2.56;100.00